This is the latest recevied weather packets stored in our database for station/object OE-11307. If no packets are shown the sender has not sent any weather packets the latest 10 day(s).
| Time | Temp. | Humidity | Pressure | Rain* | Wind** | Luminosity | Snow |
|---|---|---|---|---|---|---|---|
| 1787908286 | 24.44° C | 52% | 850.7 hPa | 0 mm | - | 214 W/m² | - |
| 1787907914 | 25° C | 50% | 850.8 hPa | 0 mm | - | 630 W/m² | - |
| 1787907314 | 25.56° C | 52% | 850.5 hPa | 0 mm | - | 630 W/m² | - |
| 1787906486 | 24.44° C | 53% | 850.6 hPa | 0 mm | - | 599 W/m² | - |
| 1787906112 | 24.44° C | 55% | 850.7 hPa | 0 mm | - | 586 W/m² | - |
| 1787905512 | 25° C | 51% | 850.9 hPa | 0 mm | - | 554 W/m² | - |
| 1787904687 | 23.33° C | 67% | 851 hPa | 0 mm | - | 378 W/m² | - |
| 1787904314 | 22.22° C | 66% | 851.1 hPa | 0 mm | - | 246 W/m² | - |
| 1787903714 | 22.22° C | 66% | 851.2 hPa | 0.25 mm | - | 378 W/m² | - |
| 1787902886 | 22.78° C | 56% | 851.6 hPa | 0.25 mm | - | 416 W/m² | - |
| 1787902514 | 22.22° C | 54% | 851.5 hPa | 0.25 mm | - | 296 W/m² | - |
| 1787901914 | 20° C | 69% | 851.7 hPa | 0.25 mm | - | 334 W/m² | - |
| 1787901086 | 20° C | 67% | 851.7 hPa | 0.25 mm | - | 315 W/m² | - |
| 1787900713 | 18.89° C | 77% | 851.8 hPa | 0 mm | - | 101 W/m² | - |
| 1787900114 | 20° C | 67% | 852.6 hPa | 0 mm | - | 32 W/m² | - |
| 1787899287 | 20° C | 63% | 851.9 hPa | 0 mm | - | 25 W/m² | - |
| 1787898913 | 20.56° C | 62% | 851.6 hPa | 0 mm | - | 50 W/m² | - |
| 1787898314 | 20.56° C | 58% | 851.3 hPa | 0 mm | - | 151 W/m² | - |
| 1787897486 | 20.56° C | 56% | 851.2 hPa | 0 mm | - | 107 W/m² | - |
| 1787897113 | 20° C | 60% | 851.2 hPa | 0 mm | - | 63 W/m² | - |
| 1787896513 | 21.11° C | 54% | 851.4 hPa | 0 mm | - | 50 W/m² | - |
| 1787895686 | 18.89° C | 63% | 851.3 hPa | 0 mm | - | 38 W/m² | - |
| 1787895314 | 19.44° C | 60% | 851.3 hPa | 0 mm | - | 25 W/m² | - |
| 1787894714 | 18.33° C | 62% | 851.2 hPa | 0 mm | - | 13 W/m² | - |
| 1787893887 | 17.78° C | 65% | 851.1 hPa | 0 mm | - | 6 W/m² | - |
* Rain latest hour (hover to see other rain measurements)
** Current wind speed in m/s (hover to see current wind gust speed)